Time;durP1;ratioP1;P1;durP2;ratioP2;P2;SDS_P1;SDS_P2;PMS_P1;PMS_P2;Temp;Humidity;BMP_temperature;BMP_pressure;BME280_temperature;BME280_humidity;BME280_pressure;Samples;Min_cycle;Max_cycle;Signal;HPM_P1;HPM_P2
2022/11/11 00:00:57;;;;;;;1999.90;999.90;;;;;;;6.27;100.00;102000.47;5004632;28;20062;-73
2022/11/11 00:03:42;;;;;;;1999.90;999.90;;;;;;;6.17;100.00;102007.94;5007164;28;20404;-73
2022/11/11 00:06:26;;;;;;;1999.90;999.90;;;;;;;6.10;100.00;102004.19;5004600;28;20080;-72
2022/11/11 00:09:10;;;;;;;1999.90;999.90;;;;;;;6.04;100.00;101999.63;5002976;28;20530;-72
2022/11/11 00:11:53;;;;;;;1999.90;999.90;;;;;;;6.01;100.00;102003.88;5006270;28;20107;-72
2022/11/11 00:14:37;;;;;;;1999.90;999.90;;;;;;;5.98;100.00;102011.66;5003117;28;20087;-72
2022/11/11 00:26:30;;;;;;;1999.90;999.90;;;;;;;5.88;100.00;102016.50;5006483;28;20100;-72
2022/11/11 00:29:14;;;;;;;1999.90;999.90;;;;;;;5.77;100.00;102016.97;5006582;28;20588;-72
2022/11/11 00:38:44;;;;;;;1999.90;999.90;;;;;;;5.62;100.00;102026.00;5006176;28;20413;-72
2022/11/11 00:41:18;;;;;;;1999.90;999.90;;;;;;;5.51;100.00;102019.47;5009702;28;20041;-73
2022/11/11 00:44:02;;;;;;;1999.90;999.90;;;;;;;5.49;100.00;102018.50;5012845;28;20144;-73
2022/11/11 00:52:51;;;;;;;;;;;;;;;5.48;100.00;102016.75;5013454;28;20091;-72
2022/11/11 00:55:35;;;;;;;1999.90;999.90;;;;;;;5.52;100.00;102012.50;5010335;28;19971;-72
2022/11/11 00:58:21;;;;;;;1999.90;999.90;;;;;;;5.58;100.00;102010.09;5005773;28;20092;-72
2022/11/11 01:01:05;;;;;;;1999.90;999.90;;;;;;;5.55;100.00;102000.41;5007362;28;20081;-72
2022/11/11 01:03:49;;;;;;;1999.90;999.90;;;;;;;5.55;100.00;102008.25;5009977;28;20124;-72
2022/11/11 01:06:33;;;;;;;1999.90;999.90;;;;;;;5.59;100.00;102002.31;5010523;28;20405;-72
2022/11/11 01:09:17;;;;;;;1999.90;999.90;;;;;;;5.66;100.00;102006.97;5040983;22;20104;-72
2022/11/11 01:12:01;;;;;;;1999.90;999.90;;;;;;;5.70;100.00;102007.97;5032984;28;20068;-72
2022/11/11 01:14:45;;;;;;;1999.90;999.90;;;;;;;5.76;100.00;102002.94;5033301;28;20115;-72
2022/11/11 01:17:29;;;;;;;1999.90;999.90;;;;;;;5.79;100.00;102003.06;5029938;28;20478;-72
2022/11/11 01:20:13;;;;;;;1999.90;999.90;;;;;;;5.84;100.00;102011.09;5013067;28;20045;-72
2022/11/11 01:22:57;;;;;;;1999.90;999.90;;;;;;;5.80;100.00;102014.44;5013196;28;20076;-72
2022/11/11 01:25:41;;;;;;;1999.90;999.90;;;;;;;5.74;100.00;102019.44;5010246;28;20072;-73
2022/11/11 01:28:25;;;;;;;1999.90;999.90;;;;;;;5.73;100.00;102018.53;5012747;28;20040;-72
2022/11/11 01:31:13;;;;;;;1999.90;999.90;;;;;;;5.66;100.00;102017.44;5012969;28;20123;-72
2022/11/11 01:33:57;;;;;;;1999.90;999.90;;;;;;;5.57;100.00;102017.06;5011525;28;20041;-72
2022/11/11 01:36:41;;;;;;;1999.90;999.90;;;;;;;5.48;100.00;102016.75;5012774;28;20099;-72
2022/11/11 01:39:25;;;;;;;1999.90;999.90;;;;;;;5.39;100.00;102013.75;5012938;28;20115;-72
2022/11/11 01:42:09;;;;;;;1999.90;999.90;;;;;;;5.31;100.00;102004.72;5012839;28;20049;-72
2022/11/11 01:44:53;;;;;;;1999.90;999.90;;;;;;;5.27;100.00;102002.00;5012760;28;20045;-72
2022/11/11 01:50:40;;;;;;;1999.90;999.90;;;;;;;5.20;100.00;101999.94;5009290;28;20117;-72
2022/11/11 01:53:24;;;;;;;1999.90;999.90;;;;;;;5.16;100.00;101992.84;5012501;28;20095;-72
2022/11/11 01:56:08;;;;;;;1999.90;999.90;;;;;;;5.11;100.00;101990.84;5012252;28;20488;-72
2022/11/11 01:58:56;;;;;;;1999.90;999.90;;;;;;;5.09;100.00;101990.78;5012464;28;20436;-73
2022/11/11 02:01:40;;;;;;;1999.90;999.90;;;;;;;5.15;100.00;101985.78;5010539;28;20048;-72
2022/11/11 02:07:29;;;;;;;1999.90;999.90;;;;;;;5.04;100.00;101981.88;5012068;28;20044;-72
2022/11/11 02:10:14;;;;;;;1999.90;999.90;;;;;;;5.18;100.00;101977.16;4997305;28;20061;-72
2022/11/11 02:16:09;;;;;;;1999.90;999.90;;;;;;;5.56;100.00;101991.72;4995031;28;20052;-72
2022/11/11 02:18:53;;;;;;;1999.90;999.90;;;;;;;5.61;100.00;101992.81;5008492;28;20045;-72
2022/11/11 02:21:47;;;;;;;1999.90;999.90;;;;;;;5.74;100.00;101985.38;5012108;28;20108;-72
2022/11/11 02:24:31;;;;;;;1999.90;999.90;;;;;;;5.81;100.00;101992.63;5011302;28;20416;-72
2022/11/11 02:27:16;;;;;;;1999.90;999.90;;;;;;;5.91;100.00;101986.91;5011632;28;20518;-72
2022/11/11 02:30:04;;;;;;;1999.90;999.90;;;;;;;5.96;100.00;101988.00;5011937;28;20424;-72
2022/11/11 02:32:50;;;;;;;1999.90;999.90;;;;;;;6.02;100.00;101996.06;5011930;28;20111;-72
2022/11/11 02:35:37;;;;;;;1999.90;999.90;;;;;;;5.97;100.00;101991.50;5011584;28;20048;-72
2022/11/11 02:38:22;;;;;;;1999.90;999.90;;;;;;;5.87;100.00;101998.13;5011199;28;20432;-73
2022/11/11 02:44:09;;;;;;;1999.90;999.90;;;;;;;5.68;100.00;101994.78;5011624;28;20439;-72
2022/11/11 02:46:53;;;;;;;1999.90;999.90;;;;;;;5.61;100.00;101999.78;5009969;28;20052;-71
2022/11/11 02:49:37;;;;;;;1999.90;999.90;;;;;;;5.64;100.00;102003.38;5011495;28;20107;-72
2022/11/11 02:52:21;;;;;;;1999.90;999.90;;;;;;;5.68;100.00;102021.00;5011503;28;20123;-72
2022/11/11 02:55:05;;;;;;;1999.90;999.90;;;;;;;5.71;100.00;102020.22;5011503;28;20044;-72
2022/11/11 02:57:49;;;;;;;1999.90;999.90;;;;;;;5.71;100.00;102014.97;5011353;28;20527;-73
2022/11/11 03:00:35;;;;;;;1999.90;999.90;;;;;;;5.70;100.00;102024.56;5011355;28;20058;-72
2022/11/11 03:03:18;;;;;;;1999.90;999.90;;;;;;;5.71;100.00;102015.88;5011438;28;20590;-72
2022/11/11 03:06:02;;;;;;;1999.90;999.90;;;;;;;5.73;100.00;102015.94;5011169;28;20056;-73
2022/11/11 03:08:46;;;;;;;1999.90;999.90;;;;;;;5.79;100.00;102010.94;5011505;28;20081;-72
2022/11/11 03:11:30;;;;;;;1999.90;999.90;;;;;;;5.81;100.00;102011.88;5011401;28;20088;-72
2022/11/11 03:14:14;;;;;;;1999.90;999.90;;;;;;;5.81;100.00;102017.09;5010477;28;20048;-72
2022/11/11 03:23:05;;;;;;;;;;;;;;;5.86;100.00;102019.91;5011474;28;20048;-72
2022/11/11 03:25:48;;;;;;;1999.90;999.90;;;;;;;5.85;100.00;102032.13;5011005;28;19926;-73
2022/11/11 03:28:32;;;;;;;1999.90;999.90;;;;;;;5.90;100.00;102021.81;5011247;28;20048;-73
2022/11/11 03:31:16;;;;;;;1999.90;999.90;;;;;;;5.96;100.00;102027.28;5011030;28;20045;-72
2022/11/11 03:34:16;;;;;;;1999.90;999.90;;;;;;;5.90;100.00;102034.91;5011149;28;20124;-72
2022/11/11 03:40:08;;;;;;;1999.90;999.90;;;;;;;5.80;100.00;102035.41;4996814;28;20057;-73
2022/11/11 03:42:52;;;;;;;1999.90;999.90;;;;;;;5.82;100.00;102044.22;5011000;28;20104;-72
2022/11/11 03:45:37;;;;;;;1999.90;999.90;;;;;;;5.78;100.00;102037.94;5010725;28;20076;-73
2022/11/11 03:48:21;;;;;;;1999.90;999.90;;;;;;;5.79;100.00;102030.97;5010868;28;20044;-72
2022/11/11 03:51:05;;;;;;;1999.90;999.90;;;;;;;5.80;100.00;102038.03;5013508;28;20627;-73
2022/11/11 03:53:49;;;;;;;1999.90;999.90;;;;;;;5.69;100.00;102037.63;5014999;28;20101;-72
2022/11/11 03:56:33;;;;;;;1999.90;999.90;;;;;;;5.59;100.00;102031.13;5014514;28;20462;-72
2022/11/11 03:59:17;;;;;;;1999.90;999.90;;;;;;;5.66;100.00;102033.16;5014482;28;20093;-72
2022/11/11 04:11:24;;;;;;;1999.90;999.90;;;;;;;5.86;100.00;102010.31;5014583;28;20049;-73
2022/11/11 04:17:12;;;;;;;1999.90;999.90;;;;;;;5.78;100.00;102017.00;5013968;28;20690;-72
2022/11/11 04:22:59;;;;;;;1999.90;999.90;;;;;;;5.88;100.00;102007.75;5012334;28;20048;-72
2022/11/11 04:25:49;;;;;;;1999.90;999.90;;;;;;;5.97;100.00;102005.47;5013763;28;20531;-72
2022/11/11 04:34:48;;;;;;;1999.90;999.90;;;;;;;6.12;100.00;102006.03;5013864;28;20049;-73
2022/11/11 04:37:35;;;;;;;1999.90;999.90;;;;;;;6.15;100.00;102006.13;5013389;28;20081;-73
2022/11/11 04:43:21;;;;;;;1999.90;999.90;;;;;;;5.96;100.00;102002.81;5018054;28;20131;-73
2022/11/11 04:46:05;;;;;;;1999.90;999.90;;;;;;;5.96;100.00;102008.94;5013525;28;20051;-72
2022/11/11 04:48:49;;;;;;;1999.90;999.90;;;;;;;5.96;100.00;102011.56;5013672;28;20432;-73
2022/11/11 04:56:46;;;;;;;1999.90;999.90;;;;;;;6.03;100.00;101989.13;5010331;28;20045;-73
2022/11/11 04:57:45;;;;;;;1999.90;999.90;;;;;;;6.15;100.00;101984.28;5013066;28;20057;-74
2022/11/11 05:00:30;;;;;;;1999.90;999.90;;;;;;;6.24;100.00;101981.13;5012309;28;20145;-71
2022/11/11 05:03:15;;;;;;;1999.90;999.90;;;;;;;6.30;100.00;101989.19;5012475;28;20052;-73
2022/11/11 05:09:03;;;;;;;1999.90;999.90;;;;;;;6.35;100.00;101979.75;5013296;28;20041;-73
2022/11/11 05:11:46;;;;;;;1999.90;999.90;;;;;;;6.40;100.00;101991.28;4996794;28;20523;-73
2022/11/11 05:26:42;;;;;;;1999.90;999.90;;;;;;;6.44;100.00;101993.16;5007065;28;20080;-72
2022/11/11 05:29:26;;;;;;;1999.90;999.90;;;;;;;6.49;100.00;101986.34;4996459;28;20511;-72
2022/11/11 05:32:10;;;;;;;1999.90;999.90;;;;;;;6.45;100.00;101994.97;5009312;28;20063;-72
2022/11/11 05:34:54;;;;;;;1999.90;999.90;;;;;;;6.46;100.00;101998.47;5012148;28;20420;-72
2022/11/11 05:37:38;;;;;;;1999.90;999.90;;;;;;;6.48;100.00;101987.19;5012623;28;20129;-72
2022/11/11 05:40:22;;;;;;;1999.90;999.90;;;;;;;6.54;100.00;101979.50;5012781;28;20053;-73
2022/11/11 05:43:06;;;;;;;1999.90;999.90;;;;;;;6.65;100.00;101978.97;5006947;28;20413;-72
2022/11/11 05:45:50;;;;;;;1999.90;999.90;;;;;;;6.67;100.00;101978.19;5009733;28;20137;-72
2022/11/11 05:48:34;;;;;;;1999.90;999.90;;;;;;;6.65;100.00;101989.47;5011513;28;20566;-72
2022/11/11 05:51:26;;;;;;;1999.90;999.90;;;;;;;6.63;100.00;101988.53;5012516;28;20541;-72
2022/11/11 05:54:11;;;;;;;1999.90;999.90;;;;;;;6.58;100.00;101984.03;5009869;28;20040;-71
2022/11/11 05:56:55;;;;;;;1999.90;999.90;;;;;;;6.62;100.00;101989.38;5009660;28;20049;-71
2022/11/11 05:59:39;;;;;;;1999.90;999.90;;;;;;;6.67;100.00;101983.44;5007366;28;20407;-71
2022/11/11 06:02:23;;;;;;;1999.90;999.90;;;;;;;6.70;100.00;101980.03;5012363;28;20049;-70
2022/11/11 06:05:07;;;;;;;1999.90;999.90;;;;;;;6.80;100.00;101984.75;5010979;28;20088;-71
2022/11/11 06:07:53;;;;;;;1999.90;999.90;;;;;;;6.86;100.00;101995.41;5009855;28;20111;-71
2022/11/11 06:10:37;;;;;;;1999.90;999.90;;;;;;;6.92;100.00;101997.38;5009009;28;20041;-71
2022/11/11 06:13:21;;;;;;;1999.90;999.90;;;;;;;6.96;100.00;102008.00;5008464;28;20048;-71
2022/11/11 06:16:05;;;;;;;1999.90;999.90;;;;;;;7.05;100.00;102012.69;5007919;28;20084;-71
2022/11/11 06:18:50;;;;;;;1999.90;999.90;;;;;;;7.14;100.00;102012.06;5010176;28;20395;-71
2022/11/11 06:21:55;;;;;;;1999.90;999.90;;;;;;;7.18;100.00;102014.84;4995278;28;20187;-71
2022/11/11 06:24:38;;;;;;;1999.90;999.90;;;;;;;7.21;100.00;102027.19;5010360;28;20095;-71
2022/11/11 06:27:22;;;;;;;1999.90;999.90;;;;;;;7.24;100.00;102016.78;5009330;28;20044;-71
2022/11/11 06:30:07;;;;;;;1999.90;999.90;;;;;;;7.26;100.00;102022.97;5011376;28;20116;-70
2022/11/11 06:32:50;;;;;;;1999.90;999.90;;;;;;;7.29;100.00;102023.06;5010950;28;20056;-71
2022/11/11 06:35:36;;;;;;;1999.90;999.90;;;;;;;7.31;100.00;102021.38;5010837;28;20519;-71
2022/11/11 06:38:21;;;;;;;1999.90;999.90;;;;;;;7.31;100.00;102025.72;5010589;28;20092;-71
2022/11/11 06:41:06;;;;;;;1999.90;999.90;;;;;;;7.30;100.00;102029.19;5010108;28;20467;-71
2022/11/11 06:43:50;;;;;;;1999.90;999.90;;;;;;;7.24;100.00;102035.16;5009092;28;20652;-71
2022/11/11 06:46:33;;;;;;;1999.90;999.90;;;;;;;7.20;100.00;102028.00;5011267;28;20563;-71
2022/11/11 06:49:17;;;;;;;1999.90;999.90;;;;;;;7.20;100.00;102038.50;5011228;28;20103;-71
2022/11/11 06:52:01;;;;;;;1999.90;999.90;;;;;;;7.25;100.00;102029.03;5011165;28;20562;-71
2022/11/11 06:54:45;;;;;;;1999.90;999.90;;;;;;;7.27;100.00;102040.50;5008318;28;20049;-71
2022/11/11 06:57:29;;;;;;;1999.90;999.90;;;;;;;7.33;100.00;102040.69;5008855;28;20139;-71
2022/11/11 07:00:13;;;;;;;1999.90;999.90;;;;;;;7.40;100.00;102045.28;5010997;28;20443;-71
2022/11/11 07:02:57;;;;;;;1999.90;999.90;;;;;;;7.49;100.00;102051.66;5011165;28;20053;-71
2022/11/11 07:05:42;;;;;;;1999.90;999.90;;;;;;;7.62;100.00;102054.72;5011321;28;20088;-71
2022/11/11 07:08:26;;;;;;;1999.90;999.90;;;;;;;7.76;100.00;102059.50;5009849;28;20041;-70
2022/11/11 07:11:10;;;;;;;1999.90;999.90;;;;;;;7.92;100.00;102063.47;5009302;28;20103;-71
2022/11/11 07:13:54;;;;;;;1999.90;999.90;;;;;;;8.09;100.00;102064.84;5011018;28;20056;-70
2022/11/11 07:16:38;;;;;;;1999.90;999.90;;;;;;;8.23;100.00;102081.03;5010910;28;20041;-71
2022/11/11 07:19:22;;;;;;;1999.90;999.90;;;;;;;8.31;100.00;102084.75;5006633;28;20092;-71
2022/11/11 07:22:06;;;;;;;1999.90;999.90;;;;;;;8.40;100.00;102079.78;5029253;22;20078;-74
2022/11/11 07:24:50;;;;;;;1999.90;999.90;;;;;;;8.50;100.00;102087.06;5023554;28;20071;-74
2022/11/11 07:27:38;;;;;;;1999.90;999.90;;;;;;;8.61;100.00;102079.47;5024034;28;20633;-74
2022/11/11 07:30:22;;;;;;;1999.90;999.90;;;;;;;8.69;100.00;102085.81;5030352;28;20041;-74
2022/11/11 07:33:06;;;;;;;1999.90;999.90;;;;;;;8.77;100.00;102089.53;5027280;28;20133;-74
2022/11/11 07:35:50;;;;;;;1999.90;999.90;;;;;;;8.70;100.00;102094.63;5026333;28;20679;-74
2022/11/11 07:38:34;;;;;;;1999.90;999.90;;;;;;;8.66;100.00;102098.00;5022689;28;20645;-74
2022/11/11 07:41:18;;;;;;;1999.90;999.90;;;;;;;8.69;100.00;102093.72;5029253;28;20049;-74
2022/11/11 07:44:02;;;;;;;1999.90;999.90;;;;;;;8.77;100.00;102097.44;5026237;28;20092;-74
2022/11/11 07:46:45;;;;;;;1999.90;999.90;;;;;;;8.84;100.00;102097.63;5028582;28;20052;-74
2022/11/11 07:49:29;;;;;;;1999.90;999.90;;;;;;;8.87;100.00;102097.69;5022932;28;20088;-74
2022/11/11 07:52:13;;;;;;;1999.90;999.90;;;;;;;8.95;100.00;102106.66;5027284;28;20052;-74
2022/11/11 07:54:57;;;;;;;1999.90;999.90;;;;;;;9.01;100.00;102098.91;5026402;28;20100;-74
2022/11/11 07:57:41;;;;;;;1999.90;999.90;;;;;;;9.10;100.00;102107.06;5024072;28;20103;-74
2022/11/11 08:00:25;;;;;;;1999.90;999.90;;;;;;;9.19;100.00;102101.13;5023704;28;20424;-76
2022/11/11 08:03:09;;;;;;;1999.90;999.90;;;;;;;9.33;100.00;102104.13;5022858;28;20479;-76
2022/11/11 08:05:56;;;;;;;1999.90;999.90;;;;;;;9.52;100.00;102094.91;5022666;28;20084;-77
2022/11/11 08:08:40;;;;;;;1999.90;999.90;;;;;;;9.64;100.00;102100.44;5028356;28;20044;-76
2022/11/11 08:14:27;;;;;;;;;;;;;;;10.01;100.00;102096.00;5027205;28;20036;-76
2022/11/11 08:17:11;;;;;;;1999.90;999.90;;;;;;;10.23;100.00;102092.03;5028138;28;20011;-76
2022/11/11 08:19:55;;;;;;;1999.90;999.90;;;;;;;10.45;99.05;102099.56;5028251;28;20156;-76
2022/11/11 08:22:40;;;;;;;1999.90;999.90;;;;;;;10.65;99.06;102089.34;5030709;28;20102;-76
2022/11/11 08:25:24;;;;;;;1999.90;999.90;;;;;;;10.86;97.91;102096.78;5023487;28;20103;-76
2022/11/11 08:28:08;;;;;;;1999.90;999.90;;;;;;;10.99;96.80;102097.00;5026821;28;20087;-77
2022/11/11 08:30:52;;;;;;;1999.90;999.90;;;;;;;11.12;95.20;102101.63;5029061;28;20238;-77
2022/11/11 08:33:36;;;;;;;1999.90;999.90;;;;;;;11.22;95.06;102092.09;5026637;28;20052;-77
2022/11/11 08:36:22;;;;;;;1999.90;999.90;;;;;;;11.31;92.74;102094.88;5025817;28;20057;-76
2022/11/11 08:39:06;;;;;;;1999.90;999.90;;;;;;;11.38;92.02;102102.94;5030669;28;20076;-77
2022/11/11 08:41:50;;;;;;;1999.90;999.90;;;;;;;11.48;91.14;102103.97;5025791;28;20182;-77
2022/11/11 08:44:34;;;;;;;1999.90;999.90;;;;;;;11.52;89.23;102108.41;5021797;28;20060;-76
2022/11/11 08:47:19;;;;;;;1999.90;999.90;;;;;;;11.59;88.65;102106.78;5024682;28;20060;-76
2022/11/11 08:50:05;;;;;;;1999.90;999.90;;;;;;;11.69;90.02;102116.63;5024104;28;20529;-76
2022/11/11 08:52:50;;;;;;;1999.90;999.90;;;;;;;11.73;86.95;102115.78;5023510;28;20083;-76
2022/11/11 08:55:35;;;;;;;1999.90;999.90;;;;;;;11.74;86.32;102116.69;5023598;28;20096;-76
2022/11/11 08:58:19;;;;;;;1999.90;999.90;;;;;;;11.81;86.11;102123.81;5025147;28;20044;-76
2022/11/11 09:01:04;;;;;;;1999.90;999.90;;;;;;;11.85;86.19;102125.66;5024408;28;20096;-77
2022/11/11 09:03:47;;;;;;;1999.90;999.90;;;;;;;11.97;86.37;102128.53;5030630;28;20044;-76
2022/11/11 09:06:31;;;;;;;1999.90;999.90;;;;;;;12.11;86.73;102127.81;5026986;28;20395;-76
2022/11/11 09:09:15;;;;;;;1999.90;999.90;;;;;;;12.15;85.51;102130.50;5025596;28;20053;-77
2022/11/11 09:12:00;;;;;;;1999.90;999.90;;;;;;;12.15;84.97;102130.50;5007411;28;20129;-77
2022/11/11 09:14:44;;;;;;;1999.90;999.90;;;;;;;12.22;85.32;102137.66;5025051;28;20049;-77
2022/11/11 09:17:28;;;;;;;1999.90;999.90;;;;;;;12.23;85.18;102134.13;5026227;28;20148;-76
2022/11/11 09:20:12;;;;;;;1999.90;999.90;;;;;;;12.26;84.94;102122.69;5025026;28;20056;-76
2022/11/11 09:22:55;;;;;;;1999.90;999.90;;;;;;;12.34;84.49;102130.72;5019407;28;20048;-77
2022/11/11 09:25:39;;;;;;;1999.90;999.90;;;;;;;12.33;83.32;102131.59;5026498;28;20099;-77
2022/11/11 09:28:23;;;;;;;1999.90;999.90;;;;;;;12.40;83.12;102134.34;5031839;28;20044;-77
2022/11/11 09:31:07;;;;;;;1999.90;999.90;;;;;;;12.48;82.36;102134.44;5021456;28;20056;-76
2022/11/11 09:33:51;;;;;;;1999.90;999.90;;;;;;;12.52;82.00;102141.53;5021309;28;20129;-76
2022/11/11 09:36:35;;;;;;;1999.90;999.90;;;;;;;12.60;82.88;102138.97;5026342;28;20533;-77
2022/11/11 09:39:19;;;;;;;1999.90;999.90;;;;;;;12.62;82.69;102139.88;5024112;28;20120;-76
2022/11/11 09:42:32;;;;;;;1999.90;999.90;;;;;;;12.56;80.74;102145.13;5027819;28;20068;-77
2022/11/11 09:45:34;;;;;;;1999.90;999.90;;;;;;;12.66;81.27;102147.88;5021452;28;20179;-76
2022/11/11 09:48:47;;;;;;;1999.90;999.90;;;;;;;12.75;80.47;102157.69;5024213;28;20076;-77
2022/11/11 09:51:36;;;;;;;;;;;;;;;12.80;79.30;102153.34;5022621;28;20048;-77
2022/11/11 09:54:33;;;;;;;1999.90;999.90;;;;;;;12.93;79.23;102143.75;5025536;28;19928;-76
2022/11/11 09:57:36;;;;;;;1999.90;999.90;;;;;;;13.04;78.97;102138.53;5026582;28;20072;-77
2022/11/11 10:00:30;;;;;;;1999.90;999.90;;;;;;;13.09;78.32;102144.78;5021173;28;20104;-77
2022/11/11 10:03:25;;;;;;;1999.90;999.90;;;;;;;13.20;77.25;102144.88;5022783;28;20108;-77
2022/11/11 10:06:17;;;;;;;1999.90;999.90;;;;;;;13.38;77.53;102132.69;5023903;28;20164;-77
2022/11/11 10:09:17;;;;;;;1999.90;999.90;;;;;;;13.53;76.52;102147.84;5022326;28;20523;-77
2022/11/11 10:12:14;;;;;;;1999.90;999.90;;;;;;;13.73;74.80;102147.09;5022272;28;20952;-77
2022/11/11 10:15:00;;;;;;;1999.90;999.90;;;;;;;13.86;72.69;102145.38;5030561;28;20076;-77
2022/11/11 10:18:05;;;;;;;1999.90;999.90;;;;;;;14.02;73.20;102149.94;5019769;28;20143;-77
2022/11/11 10:20:54;;;;;;;1999.90;999.90;;;;;;;14.28;71.29;102158.03;5027794;28;20101;-77
2022/11/11 10:23:38;;;;;;;1999.90;999.90;;;;;;;14.31;70.85;102143.88;5025627;28;20044;-77
2022/11/11 10:26:36;;;;;;;1999.90;999.90;;;;;;;14.20;69.04;102154.41;5023993;28;20111;-77
2022/11/11 10:29:24;;;;;;;1999.90;999.90;;;;;;;14.15;69.71;102154.41;5025911;28;20132;-77
2022/11/11 10:32:18;;;;;;;1999.90;999.90;;;;;;;14.12;69.80;102141.13;5031473;28;20543;-77
2022/11/11 10:35:23;;;;;;;1999.90;999.90;;;;;;;14.19;70.45;102140.25;5024279;28;20076;-77
2022/11/11 10:38:10;;;;;;;1999.90;999.90;;;;;;;14.20;70.51;102146.47;5024858;28;20064;-77
2022/11/11 10:41:00;;;;;;;1999.90;999.90;;;;;;;14.06;69.87;102137.56;5022792;28;20068;-77
2022/11/11 10:43:47;;;;;;;1999.90;999.90;;;;;;;14.15;71.04;102140.28;5021069;28;20107;-77
2022/11/11 10:46:41;;;;;;;1999.90;999.90;;;;;;;14.25;70.19;102144.72;5028076;28;20171;-77
2022/11/11 10:49:30;;;;;;;1999.90;999.90;;;;;;;14.36;68.43;102142.13;5021972;28;20045;-77
2022/11/11 10:52:47;;;;;;;1999.90;999.90;;;;;;;14.58;67.47;102136.03;5025021;28;20125;-77
2022/11/11 10:55:52;;;;;;;1999.90;999.90;;;;;;;14.78;65.96;102136.06;5021073;28;20055;-77
2022/11/11 10:58:42;;;;;;;1999.90;999.90;;;;;;;14.95;63.75;102132.56;5022997;28;20108;-77
2022/11/11 11:01:33;;;;;;;1999.90;999.90;;;;;;;14.98;64.15;102130.78;5024219;28;20041;-75
2022/11/11 11:04:32;;;;;;;1999.90;999.90;;;;;;;15.29;60.91;102131.69;5024487;28;20077;-77
2022/11/11 11:07:23;;;;;;;1999.90;999.90;;;;;;;15.25;60.23;102127.25;5025144;28;20067;-77
2022/11/11 11:10:18;;;;;;;1999.90;999.90;;;;;;;15.36;59.83;102126.38;5028357;28;20063;-77
2022/11/11 11:13:14;;;;;;;1999.90;999.90;;;;;;;15.39;59.70;102121.06;5022358;28;20047;-77
2022/11/11 11:16:03;;;;;;;1999.90;999.90;;;;;;;15.39;59.31;102123.72;5022761;28;20053;-77
2022/11/11 11:19:15;;;;;;;1999.90;999.90;;;;;;;15.33;58.80;102124.59;5022491;28;20060;-77
2022/11/11 11:22:02;;;;;;;1999.90;999.90;;;;;;;15.36;59.61;102134.34;5024900;28;20057;-77
2022/11/11 11:24:45;;;;;;;1999.90;999.90;;;;;;;15.27;59.77;102136.13;5022662;28;20420;-76
2022/11/11 11:27:29;;;;;;;1999.90;999.90;;;;;;;15.29;60.31;102144.97;5025156;28;20044;-77
2022/11/11 11:30:17;;;;;;;1999.90;999.90;;;;;;;15.18;60.28;102130.81;5022677;28;20060;-77
2022/11/11 11:33:04;;;;;;;1999.90;999.90;;;;;;;15.16;60.86;102135.22;5019961;28;20108;-77
2022/11/11 11:35:48;;;;;;;1999.90;999.90;;;;;;;15.41;62.06;102132.59;5019451;28;20053;-77
2022/11/11 11:38:41;;;;;;;1999.90;999.90;;;;;;;15.41;61.18;102132.59;5025684;28;20463;-77
2022/11/11 11:41:43;;;;;;;1999.90;999.90;;;;;;;15.23;61.18;102128.16;5020084;28;20057;-75
2022/11/11 11:44:32;;;;;;;1999.90;999.90;;;;;;;15.24;61.44;102130.78;5021143;28;20132;-75
2022/11/11 11:47:46;;;;;;;1999.90;999.90;;;;;;;15.33;61.48;102119.28;5022145;28;20463;-75
2022/11/11 11:50:55;;;;;;;1999.90;999.90;;;;;;;15.38;61.97;102113.94;5029364;28;20115;-76
2022/11/11 11:53:45;;;;;;;1999.90;999.90;;;;;;;15.31;61.00;102111.28;5019282;28;20085;-77
2022/11/11 11:56:44;;;;;;;1999.90;999.90;;;;;;;15.33;63.08;102114.84;5025880;28;20415;-75
2022/11/11 11:59:37;;;;;;;1999.90;999.90;;;;;;;15.32;62.12;102099.75;5020357;28;20168;-75
2022/11/11 12:02:56;;;;;;;1999.90;999.90;;;;;;;15.36;61.42;102107.75;5024602;28;20099;-75
2022/11/11 12:05:48;;;;;;;1999.90;999.90;;;;;;;15.38;62.86;102095.31;5016541;28;20053;-75
2022/11/11 12:08:46;;;;;;;1999.90;999.90;;;;;;;15.41;61.41;102098.88;5020696;28;20067;-75
2022/11/11 12:11:49;;;;;;;1999.90;999.90;;;;;;;15.37;61.11;102099.75;5024469;28;20450;-75
2022/11/11 12:14:57;;;;;;;1999.90;999.90;;;;;;;15.23;61.54;102081.16;5022516;28;20052;-75
2022/11/11 12:18:02;;;;;;;1999.90;999.90;;;;;;;15.13;61.07;102085.59;5022411;28;20048;-75
2022/11/11 12:20:55;;;;;;;1999.90;999.90;;;;;;;15.19;61.32;102083.81;5027084;28;20167;-75
2022/11/11 12:23:57;;;;;;;1999.90;999.90;;;;;;;15.17;62.20;102082.91;5025664;28;20109;-75
2022/11/11 12:27:03;;;;;;;1999.90;999.90;;;;;;;15.16;62.17;102083.81;5023391;28;20108;-75
2022/11/11 12:30:03;;;;;;;1999.90;999.90;;;;;;;15.21;62.60;102088.25;5025685;28;20048;-75
2022/11/11 12:33:05;;;;;;;1999.90;999.90;;;;;;;15.24;62.81;102076.72;5026744;28;20092;-75
2022/11/11 12:36:14;;;;;;;1999.90;999.90;;;;;;;15.32;62.50;102083.78;5024857;28;20067;-75
2022/11/11 12:39:23;;;;;;;246.32;224.85;;;;;;;15.41;61.28;102082.03;5023793;28;20099;-75
2022/11/11 12:42:44;;;;;;;18.38;17.48;;;;;;;15.35;62.29;102077.59;5025767;28;20139;-75
2022/11/11 12:45:46;;;;;;;20.80;19.70;;;;;;;15.47;62.24;102076.69;5022838;28;20043;-75
2022/11/11 12:48:50;;;;;;;25.83;24.40;;;;;;;15.53;61.77;102079.34;5026525;28;20044;-75
2022/11/11 12:51:53;;;;;;;14.25;13.55;;;;;;;15.57;61.20;102071.34;5025164;28;20550;-75
2022/11/11 12:54:43;;;;;;;18.10;17.15;;;;;;;15.70;61.75;102082.88;5030176;28;20083;-75
2022/11/11 12:57:58;;;;;;;1999.90;999.90;;;;;;;15.72;60.56;102078.44;5024104;28;20075;-75
2022/11/11 13:01:02;;;;;;;1999.90;999.90;;;;;;;15.93;60.31;102087.25;5027885;28;20048;-75
2022/11/11 13:03:53;;;;;;;1999.90;999.90;;;;;;;16.05;60.92;102084.53;5025508;28;20575;-75
2022/11/11 13:07:01;;;;;;;1999.90;999.90;;;;;;;16.06;59.44;102083.66;5025871;28;20047;-75
2022/11/11 13:10:10;;;;;;;1999.90;999.90;;;;;;;16.13;59.23;102082.72;5019054;28;20408;-75
2022/11/11 13:13:26;;;;;;;1999.90;999.90;;;;;;;16.44;58.32;102077.25;5027975;28;20137;-75
2022/11/11 13:16:11;;;;;;;101.57;95.32;;;;;;;16.65;58.25;102077.09;5026053;28;20072;-75
2022/11/11 13:19:03;;;;;;;111.65;105.45;;;;;;;16.50;57.52;102074.53;5021994;28;20527;-75
2022/11/11 13:21:51;;;;;;;;;;;;;;;16.47;57.83;102071.88;5024483;28;20083;-75
2022/11/11 13:24:36;;;;;;;30.85;29.40;;;;;;;16.44;58.73;102074.56;5021838;28;19920;-75
2022/11/11 13:27:30;;;;;;;21.45;20.45;;;;;;;16.64;58.42;102070.00;5021346;28;20424;-75
2022/11/11 13:30:26;;;;;;;22.15;21.02;;;;;;;16.87;57.51;102076.97;5022091;28;20048;-75
2022/11/11 13:33:24;;;;;;;18.85;17.95;;;;;;;17.13;57.50;102083.88;5023638;28;20124;-75
2022/11/11 13:36:13;;;;;;;18.70;17.83;;;;;;;17.16;56.66;102076.75;5024728;28;20053;-75
2022/11/11 13:39:00;;;;;;;1999.90;999.90;;;;;;;17.24;56.60;102079.38;5024631;28;20098;-75
2022/11/11 13:41:49;;;;;;;1999.90;999.90;;;;;;;17.39;56.31;102080.97;5026137;28;20583;-75
2022/11/11 13:44:50;;;;;;;1999.90;999.90;;;;;;;17.28;55.88;102081.09;5024357;28;20056;-75
2022/11/11 13:47:43;;;;;;;100.35;95.70;;;;;;;17.23;55.66;102090.91;5023940;28;20044;-75
2022/11/11 13:50:34;;;;;;;52.38;50.05;;;;;;;17.00;56.59;102086.69;5021949;28;20048;-75
2022/11/11 13:53:29;;;;;;;58.67;56.07;;;;;;;16.88;57.13;102086.75;5026431;28;20095;-75